Time;durP1;ratioP1;P1;durP2;ratioP2;P2;SDS_P1;SDS_P2;PMS_P1;PMS_P2;Temp;Humidity;BMP_temperature;BMP_pressure;BME280_temperature;BME280_humidity;BME280_pressure;Samples;Min_cycle;Max_cycle;Signal;HPM_P1;HPM_P2
2023/09/10 00:01:05;;;;;;;14.70;10.93;;;16.80;99.90;;;;;;5006249;28;20033;-64
2023/09/10 00:03:32;;;;;;;13.60;10.93;;;16.70;99.90;;;;;;5008273;28;20176;-64
2023/09/10 00:06:01;;;;;;;14.52;11.77;;;16.80;99.90;;;;;;5000913;28;20532;-65
2023/09/10 00:08:28;;;;;;;;;;;16.70;99.90;;;;;;5008949;28;20048;-64
2023/09/10 00:10:55;;;;;;;15.02;10.63;;;16.70;99.90;;;;;;5008259;28;19922;-63
2023/09/10 00:13:21;;;;;;;15.13;10.23;;;16.70;99.90;;;;;;5000706;28;20042;-64
2023/09/10 00:15:47;;;;;;;17.80;11.27;;;16.70;99.90;;;;;;4965060;28;20062;-64
2023/09/10 00:18:15;;;;;;;15.30;10.15;;;16.70;99.90;;;;;;5006053;28;20056;-64
2023/09/10 00:20:40;;;;;;;15.57;8.45;;;16.70;99.90;;;;;;5008900;28;20045;-64
2023/09/10 00:23:06;;;;;;;15.32;9.93;;;16.60;99.90;;;;;;5005636;28;20030;-64
2023/09/10 00:25:32;;;;;;;15.25;10.57;;;16.60;99.90;;;;;;4974656;28;20054;-64
2023/09/10 00:27:58;;;;;;;13.50;10.48;;;16.60;99.90;;;;;;5007166;28;20618;-64
2023/09/10 00:30:24;;;;;;;11.02;8.77;;;16.60;99.90;;;;;;5008038;28;20050;-64
2023/09/10 00:32:50;;;;;;;15.40;11.65;;;16.60;99.90;;;;;;5008051;28;20084;-63
2023/09/10 00:35:15;;;;;;;16.52;11.38;;;16.60;99.90;;;;;;4998378;28;20046;-64
2023/09/10 00:37:41;;;;;;;19.85;12.00;;;16.50;99.90;;;;;;5008624;28;20141;-64
2023/09/10 00:40:08;;;;;;;15.45;12.60;;;16.60;99.90;;;;;;4989362;28;20124;-64
2023/09/10 00:42:34;;;;;;;15.95;12.52;;;16.60;99.90;;;;;;5007782;28;20937;-64
2023/09/10 00:45:00;;;;;;;16.27;12.55;;;16.50;99.90;;;;;;5000289;28;20047;-63
2023/09/10 00:47:27;;;;;;;15.48;11.50;;;16.50;99.90;;;;;;5007697;28;20050;-63
2023/09/10 00:49:53;;;;;;;12.75;11.35;;;16.50;99.90;;;;;;5006276;28;20504;-64
2023/09/10 00:52:21;;;;;;;15.77;12.27;;;16.40;99.90;;;;;;5007096;28;20054;-64
2023/09/10 00:54:49;;;;;;;15.63;11.88;;;16.40;99.90;;;;;;5004644;28;20129;-63
2023/09/10 00:57:16;;;;;;;15.68;11.88;;;16.40;99.90;;;;;;4986148;28;20113;-64
2023/09/10 00:59:42;;;;;;;10.95;9.00;;;16.40;99.90;;;;;;5007864;28;20500;-64
2023/09/10 01:02:08;;;;;;;10.32;8.77;;;16.40;99.90;;;;;;4999894;28;20593;-64
2023/09/10 01:04:34;;;;;;;11.52;9.25;;;16.40;99.90;;;;;;5009070;28;20657;-64
2023/09/10 01:07:01;;;;;;;10.07;8.48;;;16.30;99.90;;;;;;4977835;28;20121;-64
2023/09/10 01:09:27;;;;;;;13.18;9.70;;;16.30;99.90;;;;;;4979414;28;20121;-64
2023/09/10 01:12:09;;;;;;;16.50;11.65;;;16.20;99.90;;;;;;4990070;28;20121;-63
2023/09/10 01:14:38;;;;;;;14.77;10.18;;;16.30;99.90;;;;;;5005078;28;20566;-64
2023/09/10 01:17:22;;;;;;;9.48;8.15;;;16.30;99.90;;;;;;4998802;28;20060;-63
2023/09/10 01:19:51;;;;;;;10.45;8.02;;;16.30;99.90;;;;;;5006322;28;20049;-63
2023/09/10 01:23:11;;;;;;;10.40;8.50;;;16.30;99.90;;;;;;5007883;28;20160;-64
2023/09/10 01:25:37;;;;;;;12.05;8.55;;;16.20;99.90;;;;;;4946047;29;20051;-64
2023/09/10 01:28:04;;;;;;;11.75;8.05;;;16.20;99.90;;;;;;4993302;28;20052;-64
2023/09/10 01:30:31;;;;;;;10.60;8.23;;;16.10;99.90;;;;;;4989293;28;20502;-64
2023/09/10 01:33:34;;;;;;;18.50;12.63;;;16.10;99.90;;;;;;4987973;28;20066;-64
2023/09/10 01:36:11;;;;;;;13.07;10.38;;;16.00;99.90;;;;;;4999592;28;20046;-63
2023/09/10 01:39:01;;;;;;;14.98;11.38;;;16.00;99.90;;;;;;4999763;28;20077;-64
2023/09/10 01:41:29;;;;;;;15.68;12.50;;;16.00;99.90;;;;;;5003086;28;20057;-64
2023/09/10 01:43:55;;;;;;;20.17;14.77;;;16.00;99.90;;;;;;5007398;28;20049;-64
2023/09/10 01:46:23;;;;;;;13.15;11.43;;;16.00;99.90;;;;;;5005882;28;20119;-64
2023/09/10 01:48:49;;;;;;;12.68;10.95;;;16.10;99.90;;;;;;4998303;28;20486;-64
2023/09/10 01:51:17;;;;;;;15.52;11.18;;;16.10;99.90;;;;;;4984289;28;20046;-64
2023/09/10 01:53:42;;;;;;;12.20;10.90;;;16.10;99.90;;;;;;4986064;28;20050;-64
2023/09/10 01:56:08;;;;;;;17.35;9.73;;;16.00;99.90;;;;;;4970405;28;20108;-65
2023/09/10 01:58:34;;;;;;;14.88;11.20;;;16.00;99.90;;;;;;4979871;28;20512;-64
2023/09/10 02:01:00;;;;;;;17.33;10.95;;;15.90;99.90;;;;;;4977512;28;20054;-64
2023/09/10 02:03:27;;;;;;;17.83;13.43;;;15.80;99.90;;;;;;4968039;28;20039;-64
2023/09/10 02:05:53;;;;;;;13.95;11.00;;;15.80;99.90;;;;;;4953612;28;20050;-64
2023/09/10 02:08:19;;;;;;;16.05;12.00;;;15.80;99.90;;;;;;4994095;28;20052;-64
2023/09/10 02:10:44;;;;;;;14.63;12.52;;;15.80;99.90;;;;;;4982234;28;20101;-64
2023/09/10 02:13:10;;;;;;;21.90;12.88;;;15.80;99.90;;;;;;4987775;28;20105;-64
2023/09/10 02:15:36;;;;;;;16.02;12.18;;;15.80;99.90;;;;;;4968823;28;20515;-64
2023/09/10 02:18:02;;;;;;;16.85;12.07;;;15.80;99.90;;;;;;4967577;28;20124;-64
2023/09/10 02:20:28;;;;;;;20.73;13.40;;;15.80;99.90;;;;;;4985989;28;20045;-64
2023/09/10 02:22:53;;;;;;;16.95;13.50;;;15.80;99.90;;;;;;4952432;28;20993;-64
2023/09/10 02:25:19;;;;;;;16.02;13.07;;;15.80;99.90;;;;;;4961615;28;20117;-64
2023/09/10 02:27:45;;;;;;;21.58;13.15;;;15.80;99.90;;;;;;4986059;28;20039;-64
2023/09/10 02:30:11;;;;;;;28.75;18.10;;;15.80;99.90;;;;;;4987851;28;20069;-64
2023/09/10 02:32:37;;;;;;;33.42;21.50;;;15.90;99.90;;;;;;4968061;28;20097;-64
2023/09/10 02:35:03;;;;;;;28.88;18.58;;;15.90;99.90;;;;;;4987821;28;20417;-64
2023/09/10 02:37:31;;;;;;;30.15;18.63;;;15.90;99.90;;;;;;4985607;28;20053;-64
2023/09/10 02:39:56;;;;;;;26.63;17.55;;;15.90;99.90;;;;;;4981725;28;20047;-64
2023/09/10 02:42:22;;;;;;;43.33;21.00;;;16.00;99.90;;;;;;4990174;28;20038;-64
2023/09/10 02:44:48;;;;;;;32.92;19.38;;;16.00;99.90;;;;;;4972497;28;20053;-64
2023/09/10 02:47:13;;;;;;;26.02;16.33;;;15.90;99.90;;;;;;4990942;28;20070;-64
2023/09/10 02:49:39;;;;;;;27.02;17.23;;;16.00;99.90;;;;;;4984070;28;20122;-64
2023/09/10 02:52:05;;;;;;;29.52;19.13;;;15.90;99.90;;;;;;4990780;28;20038;-64
2023/09/10 02:54:35;;;;;;;27.65;19.65;;;15.90;99.90;;;;;;5006736;28;20054;-64
2023/09/10 02:57:01;;;;;;;53.45;22.27;;;15.90;99.90;;;;;;5010003;28;20057;-64
2023/09/10 02:59:27;;;;;;;42.33;22.95;;;15.90;99.90;;;;;;5000051;28;20057;-64
2023/09/10 03:01:53;;;;;;;29.30;21.55;;;15.90;99.90;;;;;;5003154;28;20052;-64
2023/09/10 03:04:20;;;;;;;27.38;20.75;;;15.90;99.90;;;;;;4992270;28;20511;-64
2023/09/10 03:06:50;;;;;;;24.80;19.30;;;15.90;99.90;;;;;;5007493;28;20121;-64
2023/09/10 03:09:16;;;;;;;25.10;15.05;;;15.90;99.90;;;;;;4998143;28;20125;-64
2023/09/10 03:11:43;;;;;;;19.13;15.27;;;15.90;99.90;;;;;;5008145;28;20120;-64
2023/09/10 03:14:09;;;;;;;19.95;15.68;;;15.90;99.90;;;;;;4992476;28;20062;-64
2023/09/10 03:16:36;;;;;;;17.88;15.15;;;15.90;99.90;;;;;;4990677;28;20052;-64
2023/09/10 03:19:02;;;;;;;21.77;17.13;;;16.00;99.90;;;;;;5005017;28;20048;-64
2023/09/10 03:21:28;;;;;;;23.90;17.88;;;15.90;99.90;;;;;;4991614;28;20038;-64
2023/09/10 03:23:54;;;;;;;21.92;16.92;;;16.00;99.90;;;;;;5008585;28;20045;-64
2023/09/10 03:26:20;;;;;;;23.98;18.02;;;16.00;99.90;;;;;;4991758;28;20038;-64
2023/09/10 03:28:46;;;;;;;44.00;19.38;;;16.00;99.90;;;;;;5008015;28;20076;-64
2023/09/10 03:31:12;;;;;;;29.73;19.58;;;16.00;99.90;;;;;;4996352;28;20034;-64
2023/09/10 03:33:37;;;;;;;39.83;16.17;;;16.00;99.90;;;;;;5007954;28;20037;-64
2023/09/10 03:36:03;;;;;;;29.05;14.77;;;16.00;99.90;;;;;;5009324;28;20117;-64
2023/09/10 03:38:30;;;;;;;21.80;15.65;;;16.10;99.90;;;;;;4984833;28;20512;-64
2023/09/10 03:40:55;;;;;;;39.15;14.23;;;16.00;99.90;;;;;;4992979;28;20069;-63
2023/09/10 03:43:21;;;;;;;35.20;10.85;;;16.00;99.90;;;;;;4990134;28;20523;-64
2023/09/10 03:45:47;;;;;;;49.97;9.98;;;16.00;99.90;;;;;;4999643;28;20461;-64
2023/09/10 03:48:13;;;;;;;39.40;19.98;;;16.00;99.90;;;;;;4991667;28;20100;-64
2023/09/10 03:50:39;;;;;;;81.78;17.33;;;16.00;99.90;;;;;;5005472;28;20373;-64
2023/09/10 03:53:05;;;;;;;45.40;20.02;;;16.00;99.90;;;;;;5003640;28;20069;-64
2023/09/10 03:55:31;;;;;;;47.78;22.05;;;16.00;99.90;;;;;;4990604;28;20120;-64
2023/09/10 03:57:56;;;;;;;162.10;25.40;;;16.00;99.90;;;;;;5008523;28;20594;-64
2023/09/10 04:00:22;;;;;;;57.20;30.45;;;16.00;99.90;;;;;;4990938;28;20061;-64
2023/09/10 04:02:48;;;;;;;45.60;32.78;;;15.90;99.90;;;;;;4983398;28;20053;-63
2023/09/10 04:05:14;;;;;;;44.00;30.15;;;16.00;99.90;;;;;;5008836;28;20076;-64
2023/09/10 04:07:40;;;;;;;66.45;34.72;;;15.90;99.90;;;;;;5007837;28;20442;-64
2023/09/10 04:10:09;;;;;;;37.67;28.63;;;15.90;99.90;;;;;;5008468;28;20046;-64
2023/09/10 04:12:36;;;;;;;41.13;30.42;;;15.90;99.90;;;;;;5007653;28;20084;-64
2023/09/10 04:15:03;;;;;;;37.03;23.60;;;15.90;99.90;;;;;;4973905;28;20501;-64
2023/09/10 04:17:29;;;;;;;41.60;22.42;;;15.90;99.90;;;;;;4981474;28;20049;-64
2023/09/10 04:19:57;;;;;;;38.80;28.15;;;15.80;99.90;;;;;;5008176;28;20060;-64
2023/09/10 04:22:23;;;;;;;33.05;25.13;;;15.80;99.90;;;;;;4995229;28;20105;-64
2023/09/10 04:24:49;;;;;;;24.13;19.05;;;15.80;99.90;;;;;;5006760;28;20041;-64
2023/09/10 04:27:15;;;;;;;19.98;15.23;;;15.80;99.90;;;;;;4996375;28;20052;-64
2023/09/10 04:29:41;;;;;;;26.63;13.30;;;15.80;99.90;;;;;;5005022;28;20052;-64
2023/09/10 04:32:07;;;;;;;19.63;12.35;;;15.70;99.90;;;;;;4973246;28;20445;-64
2023/09/10 04:34:32;;;;;;;21.77;12.23;;;15.80;99.90;;;;;;4989974;28;20500;-64
2023/09/10 04:36:58;;;;;;;16.45;12.80;;;15.80;99.90;;;;;;5007695;28;20057;-63
2023/09/10 04:39:24;;;;;;;15.73;13.05;;;15.80;99.90;;;;;;5003019;28;20060;-64
2023/09/10 04:41:49;;;;;;;17.63;14.45;;;15.80;99.90;;;;;;5006654;28;20033;-64
2023/09/10 04:44:16;;;;;;;21.15;15.73;;;15.80;99.90;;;;;;4990658;28;20095;-64
2023/09/10 04:46:41;;;;;;;20.73;16.10;;;15.80;99.90;;;;;;4989014;28;20459;-64
2023/09/10 04:49:07;;;;;;;19.73;16.15;;;15.80;99.90;;;;;;4990155;28;20050;-64
2023/09/10 04:51:33;;;;;;;18.33;15.10;;;15.80;99.90;;;;;;5005152;28;20045;-64
2023/09/10 04:53:59;;;;;;;24.58;15.23;;;15.80;99.90;;;;;;4989712;28;20053;-64
2023/09/10 04:56:24;;;;;;;30.05;12.98;;;15.80;99.90;;;;;;4993943;28;20200;-64
2023/09/10 04:58:50;;;;;;;33.88;12.70;;;15.80;99.90;;;;;;5006943;28;20046;-64
2023/09/10 05:01:16;;;;;;;23.60;11.93;;;15.80;99.90;;;;;;5003714;28;20051;-64
2023/09/10 05:03:42;;;;;;;12.73;11.43;;;15.80;99.90;;;;;;4991223;28;20038;-63
2023/09/10 05:06:08;;;;;;;16.73;11.45;;;15.80;99.90;;;;;;5007378;28;20414;-64
2023/09/10 05:08:34;;;;;;;15.38;10.57;;;15.80;99.90;;;;;;5006679;28;20053;-64
2023/09/10 05:11:00;;;;;;;23.50;11.57;;;15.80;99.90;;;;;;5005987;28;20049;-64
2023/09/10 05:13:26;;;;;;;26.45;11.43;;;15.90;99.90;;;;;;5006658;28;20554;-64
2023/09/10 05:15:57;;;;;;;19.85;12.30;;;15.80;99.90;;;;;;4990551;28;20121;-64
2023/09/10 05:18:26;;;;;;;14.70;11.88;;;15.90;99.90;;;;;;4996546;28;20053;-64
2023/09/10 05:20:52;;;;;;;14.10;12.48;;;15.90;99.90;;;;;;4977367;28;20046;-64
2023/09/10 05:23:22;;;;;;;12.73;11.23;;;15.90;99.90;;;;;;4977801;28;20064;-64
2023/09/10 05:25:49;;;;;;;12.13;10.32;;;15.90;99.90;;;;;;4988798;28;20046;-64
2023/09/10 05:28:15;;;;;;;11.18;9.98;;;15.90;99.90;;;;;;4975114;28;20086;-64
2023/09/10 05:30:41;;;;;;;10.50;9.52;;;15.90;99.90;;;;;;4998709;28;20053;-63
2023/09/10 05:33:06;;;;;;;9.77;8.98;;;15.90;99.90;;;;;;5005413;28;20412;-64
2023/09/10 05:35:32;;;;;;;11.45;9.60;;;15.90;99.90;;;;;;5006583;28;20135;-64
2023/09/10 05:37:58;;;;;;;10.23;9.25;;;15.90;99.90;;;;;;5006078;28;20090;-64
2023/09/10 05:40:25;;;;;;;9.88;8.88;;;15.90;99.90;;;;;;5004126;28;20042;-64
2023/09/10 05:42:51;;;;;;;10.10;8.95;;;15.90;99.90;;;;;;4982810;28;20056;-64
2023/09/10 05:45:16;;;;;;;11.20;9.43;;;15.90;99.90;;;;;;4989520;28;20556;-64
2023/09/10 05:47:42;;;;;;;10.40;9.27;;;16.00;99.90;;;;;;5005951;28;20137;-64
2023/09/10 05:50:08;;;;;;;20.77;9.45;;;16.00;99.90;;;;;;5007376;28;20092;-64
2023/09/10 05:52:34;;;;;;;20.98;9.30;;;16.00;99.90;;;;;;4996801;28;20042;-64
2023/09/10 05:55:00;;;;;;;10.52;9.50;;;16.10;99.90;;;;;;4994933;28;20553;-64
2023/09/10 05:57:26;;;;;;;15.88;10.02;;;16.20;99.90;;;;;;5007420;28;20034;-64
2023/09/10 05:59:51;;;;;;;20.80;10.45;;;16.20;99.90;;;;;;4988435;28;20046;-64
2023/09/10 06:02:17;;;;;;;21.88;9.25;;;16.20;99.90;;;;;;4982979;28;20050;-64
2023/09/10 06:04:43;;;;;;;51.55;10.10;;;16.30;99.90;;;;;;5002635;28;20121;-64
2023/09/10 06:07:09;;;;;;;19.63;8.75;;;16.40;99.90;;;;;;4994645;28;20369;-64
2023/09/10 06:09:34;;;;;;;33.05;8.60;;;16.40;99.90;;;;;;5006125;28;20117;-64
2023/09/10 06:12:05;;;;;;;26.73;9.77;;;16.50;99.90;;;;;;5005720;28;20088;-64
2023/09/10 06:14:33;;;;;;;28.35;9.35;;;16.50;99.90;;;;;;5010116;28;20454;-63
2023/09/10 06:16:59;;;;;;;25.50;10.23;;;16.60;99.90;;;;;;5005669;28;20053;-64
2023/09/10 06:19:25;;;;;;;40.45;10.02;;;16.60;99.90;;;;;;5010642;28;20439;-64
2023/09/10 06:21:51;;;;;;;48.08;9.75;;;16.70;99.90;;;;;;4975609;28;20388;-64
2023/09/10 06:24:16;;;;;;;39.63;9.50;;;16.70;99.90;;;;;;4992973;28;20045;-63
2023/09/10 06:26:42;;;;;;;19.55;9.13;;;16.80;99.90;;;;;;5009614;28;20045;-64
2023/09/10 06:29:08;;;;;;;24.50;9.70;;;16.80;99.90;;;;;;4990078;28;20080;-64
2023/09/10 06:31:33;;;;;;;40.17;9.35;;;17.00;99.90;;;;;;5007868;28;20042;-64
2023/09/10 06:33:59;;;;;;;29.55;9.40;;;17.00;99.90;;;;;;5010341;28;20050;-64
2023/09/10 06:36:25;;;;;;;29.10;8.48;;;17.10;99.90;;;;;;4992390;28;20081;-64
2023/09/10 06:38:51;;;;;;;27.15;7.93;;;17.20;99.90;;;;;;4991760;28;20054;-64
2023/09/10 06:41:17;;;;;;;31.42;7.90;;;17.30;99.90;;;;;;4982724;28;20042;-64
2023/09/10 06:43:44;;;;;;;23.75;8.05;;;17.40;99.90;;;;;;4988010;28;20099;-63
2023/09/10 06:46:10;;;;;;;17.95;8.27;;;17.40;99.90;;;;;;5008860;28;20045;-64
2023/09/10 06:48:36;;;;;;;12.40;8.13;;;17.50;99.90;;;;;;5008616;28;20580;-64
2023/09/10 06:51:02;;;;;;;9.80;8.88;;;17.50;99.90;;;;;;4999183;28;20050;-64
2023/09/10 06:53:28;;;;;;;42.03;8.25;;;17.60;99.90;;;;;;4996801;28;20038;-64
2023/09/10 06:55:54;;;;;;;26.25;8.90;;;17.70;99.90;;;;;;5002026;28;20133;-64
2023/09/10 06:58:21;;;;;;;26.45;9.88;;;17.80;99.90;;;;;;4990295;28;20183;-64
2023/09/10 07:00:46;;;;;;;35.80;10.27;;;17.80;99.90;;;;;;4995294;28;20042;-64
2023/09/10 07:03:13;;;;;;;14.35;11.02;;;17.90;99.90;;;;;;4991729;28;20565;-64
2023/09/10 07:05:40;;;;;;;14.75;11.10;;;18.00;99.90;;;;;;5004287;28;20132;-64
2023/09/10 07:08:07;;;;;;;25.33;12.40;;;18.10;99.90;;;;;;4998978;28;20061;-64
2023/09/10 07:10:33;;;;;;;15.45;12.50;;;18.10;99.90;;;;;;5004801;28;20119;-64
2023/09/10 07:13:01;;;;;;;21.17;14.98;;;18.20;99.90;;;;;;5004752;28;20132;-64
2023/09/10 07:15:27;;;;;;;23.25;16.45;;;18.40;99.90;;;;;;5009147;28;20050;-64
2023/09/10 07:17:52;;;;;;;17.98;14.85;;;18.50;99.90;;;;;;5008400;28;20042;-64
2023/09/10 07:20:18;;;;;;;24.27;14.30;;;18.60;99.90;;;;;;5009503;28;20057;-64
2023/09/10 07:22:44;;;;;;;18.52;14.50;;;18.80;99.90;;;;;;5006736;28;20510;-64
2023/09/10 07:25:10;;;;;;;20.85;15.65;;;18.80;99.90;;;;;;4991553;28;20050;-64
2023/09/10 07:27:35;;;;;;;26.95;19.42;;;19.00;99.90;;;;;;5008398;28;20463;-64
2023/09/10 07:30:02;;;;;;;22.15;16.30;;;19.10;99.90;;;;;;5009268;28;20129;-64
2023/09/10 07:32:28;;;;;;;28.40;19.92;;;19.20;99.90;;;;;;4990972;28;20447;-64
2023/09/10 07:34:53;;;;;;;32.72;20.10;;;19.30;99.90;;;;;;5006092;28;20042;-64
2023/09/10 07:37:19;;;;;;;29.85;19.58;;;19.50;99.90;;;;;;5007505;28;20061;-64
2023/09/10 07:39:45;;;;;;;28.42;18.67;;;19.60;99.90;;;;;;4990569;28;20042;-64
2023/09/10 07:42:10;;;;;;;26.70;19.38;;;19.80;99.90;;;;;;5009337;28;20469;-63
2023/09/10 07:44:36;;;;;;;32.22;19.83;;;19.90;99.90;;;;;;5007212;28;20046;-64
2023/09/10 07:47:02;;;;;;;21.55;16.67;;;20.00;99.90;;;;;;4991942;28;20046;-64
2023/09/10 07:49:28;;;;;;;24.08;17.95;;;20.10;99.90;;;;;;4983582;28;20092;-64
2023/09/10 07:51:54;;;;;;;30.38;18.40;;;20.20;99.90;;;;;;5008611;28;20073;-64
2023/09/10 07:54:19;;;;;;;24.88;17.75;;;20.30;99.90;;;;;;5008464;28;20054;-64
2023/09/10 07:56:46;;;;;;;24.30;18.02;;;20.40;99.90;;;;;;5007546;28;20483;-64
2023/09/10 07:59:12;;;;;;;27.52;20.40;;;20.50;99.90;;;;;;4991279;28;20054;-64
2023/09/10 08:01:38;;;;;;;29.17;19.80;;;20.60;99.90;;;;;;4987158;28;20045;-64
2023/09/10 08:04:04;;;;;;;27.75;20.00;;;20.70;99.90;;;;;;5008995;28;20046;-64
2023/09/10 08:06:30;;;;;;;29.88;19.67;;;20.90;99.90;;;;;;5007404;28;20068;-64
2023/09/10 08:08:56;;;;;;;26.25;19.48;;;21.10;99.90;;;;;;5007936;28;20046;-64
2023/09/10 08:11:22;;;;;;;26.73;18.85;;;21.20;99.90;;;;;;4989455;28;20404;-64
2023/09/10 08:13:48;;;;;;;27.73;18.15;;;21.30;99.90;;;;;;5006271;28;20573;-64
2023/09/10 08:16:15;;;;;;;23.15;17.13;;;21.50;99.90;;;;;;5007030;28;20045;-65
2023/09/10 08:18:41;;;;;;;20.73;15.82;;;21.60;99.90;;;;;;5006014;28;20045;-65
2023/09/10 08:21:07;;;;;;;22.38;16.23;;;21.80;99.90;;;;;;4987452;28;20050;-65
2023/09/10 08:23:33;;;;;;;20.52;15.63;;;21.90;99.90;;;;;;4996087;28;20103;-64
2023/09/10 08:25:59;;;;;;;22.33;15.43;;;22.00;99.90;;;;;;5002237;28;20053;-64
2023/09/10 08:28:25;;;;;;;19.73;15.45;;;22.10;99.90;;;;;;5000192;28;20169;-65
2023/09/10 08:30:51;;;;;;;17.45;13.98;;;22.20;99.90;;;;;;4969200;28;20050;-64
2023/09/10 08:33:17;;;;;;;20.52;14.63;;;22.30;99.90;;;;;;5003480;28;20480;-65
2023/09/10 08:35:46;;;;;;;21.95;15.50;;;22.30;99.90;;;;;;5002041;28;20041;-65
2023/09/10 08:38:12;;;;;;;23.92;16.58;;;22.40;99.90;;;;;;4984551;28;20149;-65
2023/09/10 08:40:58;;;;;;;18.92;13.90;;;22.50;99.90;;;;;;5003264;28;20532;-65
2023/09/10 08:43:45;;;;;;;20.67;15.15;;;22.50;99.90;;;;;;5002244;28;20053;-64
2023/09/10 08:46:13;;;;;;;20.13;14.40;;;22.60;99.90;;;;;;4992276;28;20053;-64
2023/09/10 08:48:43;;;;;;;18.38;14.02;;;22.60;99.90;;;;;;4986897;28;20050;-64
2023/09/10 08:51:11;;;;;;;20.52;14.18;;;22.70;99.90;;;;;;5008089;28;20081;-65
2023/09/10 08:53:39;;;;;;;18.48;13.35;;;22.80;99.90;;;;;;5002191;28;20116;-65
2023/09/10 08:56:07;;;;;;;20.95;14.18;;;22.90;99.90;;;;;;4997082;28;20096;-64
2023/09/10 08:58:37;;;;;;;20.50;14.57;;;22.90;99.90;;;;;;5003460;28;20733;-64
2023/09/10 09:01:03;;;;;;;;;;;23.00;99.90;;;;;;4997405;28;20053;-64
2023/09/10 09:03:30;;;;;;;21.67;12.77;;;23.10;99.90;;;;;;4968953;28;19930;-64
2023/09/10 09:05:58;;;;;;;22.15;13.45;;;23.20;99.90;;;;;;4976989;28;20049;-64
2023/09/10 09:08:30;;;;;;;19.60;14.02;;;23.30;99.90;;;;;;5004116;28;20046;-65
2023/09/10 09:10:58;;;;;;;15.93;11.73;;;23.30;99.90;;;;;;5005668;28;20401;-65
2023/09/10 09:13:26;;;;;;;16.60;12.15;;;23.30;99.90;;;;;;5000352;28;20599;-64
2023/09/10 09:15:53;;;;;;;18.50;11.43;;;23.40;99.90;;;;;;5005889;28;20046;-64
2023/09/10 09:18:20;;;;;;;13.00;10.13;;;23.50;99.90;;;;;;5006783;28;20408;-64
2023/09/10 09:20:48;;;;;;;12.40;10.30;;;23.60;99.90;;;;;;5006506;28;20523;-64
2023/09/10 09:23:27;;;;;;;13.30;10.88;;;23.60;98.40;;;;;;4977611;28;20045;-64
2023/09/10 09:25:55;;;;;;;15.05;11.18;;;23.70;96.40;;;;;;4987179;28;20051;-65
2023/09/10 09:28:22;;;;;;;14.73;11.05;;;23.70;97.00;;;;;;4994968;28;20042;-65
2023/09/10 09:30:48;;;;;;;11.18;9.98;;;23.70;96.50;;;;;;4982970;28;20363;-65
2023/09/10 09:33:14;;;;;;;13.90;10.43;;;23.90;99.90;;;;;;4995612;28;20510;-64
2023/09/10 09:35:40;;;;;;;13.60;10.13;;;23.90;99.90;;;;;;5001946;28;20038;-65
2023/09/10 09:38:11;;;;;;;11.30;9.90;;;24.00;99.90;;;;;;5006768;28;20038;-65
2023/09/10 09:40:37;;;;;;;12.85;9.88;;;24.10;99.80;;;;;;5005556;28;20057;-65
2023/09/10 09:43:07;;;;;;;13.52;10.63;;;24.10;99.90;;;;;;4989202;28;20427;-65
2023/09/10 09:45:35;;;;;;;11.95;10.23;;;24.10;99.90;;;;;;5000918;28;20045;-65
2023/09/10 09:48:03;;;;;;;16.52;10.20;;;24.20;99.90;;;;;;4992790;28;20068;-65
2023/09/10 09:50:29;;;;;;;34.97;9.73;;;24.30;99.90;;;;;;4980088;28;20120;-65
2023/09/10 09:52:55;;;;;;;17.45;9.85;;;24.40;99.90;;;;;;4994823;28;20050;-65
2023/09/10 09:55:21;;;;;;;12.63;9.80;;;24.50;99.90;;;;;;4982395;28;20058;-64
2023/09/10 09:57:48;;;;;;;14.43;9.77;;;24.60;99.90;;;;;;4979695;28;20095;-64
2023/09/10 10:00:15;;;;;;;12.23;10.35;;;24.60;99.90;;;;;;4966466;28;20082;-65
2023/09/10 10:02:42;;;;;;;14.68;10.07;;;24.70;93.60;;;;;;5001412;28;20193;-65
2023/09/10 10:05:08;;;;;;;11.20;9.32;;;24.80;97.80;;;;;;5002668;28;20560;-64
2023/09/10 10:07:37;;;;;;;12.40;9.77;;;24.90;99.90;;;;;;4981506;28;20048;-65
2023/09/10 10:10:08;;;;;;;15.27;10.02;;;25.00;98.30;;;;;;4991113;28;20455;-64
2023/09/10 10:12:34;;;;;;;14.45;9.70;;;25.10;97.30;;;;;;5003100;28;20054;-65
2023/09/10 10:15:00;;;;;;;11.60;9.65;;;25.10;95.30;;;;;;4993914;28;20512;-64
2023/09/10 10:17:27;;;;;;;10.75;8.88;;;25.10;91.10;;;;;;5001750;28;20050;-64
2023/09/10 10:19:54;;;;;;;12.38;8.40;;;25.20;95.80;;;;;;4991305;28;20507;-65
2023/09/10 10:22:21;;;;;;;12.73;8.52;;;25.20;91.00;;;;;;4991890;28;20057;-65
2023/09/10 10:24:49;;;;;;;10.98;8.13;;;25.30;94.40;;;;;;4987360;28;20042;-65
2023/09/10 10:27:16;;;;;;;10.52;8.00;;;25.30;92.90;;;;;;4964321;28;20560;-65
2023/09/10 10:29:42;;;;;;;10.57;7.70;;;25.40;94.80;;;;;;4994871;28;20164;-65
2023/09/10 10:32:18;;;;;;;10.52;8.20;;;25.50;92.80;;;;;;4995719;28;20145;-64
2023/09/10 10:35:10;;;;;;;9.52;7.53;;;25.40;76.20;;;;;;4969527;28;20038;-65
2023/09/10 10:37:52;;;;;;;9.82;6.63;;;25.50;86.90;;;;;;5006844;28;20129;-64
2023/09/10 10:40:30;;;;;;;8.20;7.07;;;25.50;89.40;;;;;;4994309;28;20050;-65
2023/09/10 10:43:25;;;;;;;8.55;6.90;;;25.50;81.40;;;;;;4986400;28;20140;-65
2023/09/10 10:45:55;;;;;;;7.40;6.63;;;25.60;84.10;;;;;;4974807;28;20475;-65
2023/09/10 10:48:25;;;;;;;8.27;6.90;;;25.50;78.80;;;;;;5013194;28;20046;-65
2023/09/10 10:50:53;;;;;;;9.98;7.05;;;25.40;80.50;;;;;;4988303;28;20609;-65
2023/09/10 10:53:24;;;;;;;9.00;6.28;;;25.50;90.50;;;;;;4996900;28;20045;-65
2023/09/10 10:55:52;;;;;;;9.48;6.85;;;25.50;87.20;;;;;;4981259;28;20061;-65
2023/09/10 10:58:20;;;;;;;;;;;25.50;81.50;;;;;;5001300;28;20061;-65
2023/09/10 11:00:53;;;;;;;9.05;7.47;;;25.30;73.00;;;;;;4996545;28;19991;-65
2023/09/10 11:03:20;;;;;;;7.35;6.60;;;25.30;77.00;;;;;;4973774;28;20214;-65
2023/09/10 11:05:52;;;;;;;8.82;7.82;;;25.20;82.50;;;;;;4999174;28;20491;-65
2023/09/10 11:08:28;;;;;;;10.73;7.68;;;25.20;78.10;;;;;;5000242;28;20049;-65
2023/09/10 11:10:55;;;;;;;8.60;7.20;;;25.10;81.50;;;;;;4983080;28;20466;-65
2023/09/10 11:13:23;;;;;;;10.20;7.32;;;25.10;86.90;;;;;;5008935;28;20488;-66
2023/09/10 11:16:04;;;;;;;7.78;6.97;;;25.10;89.60;;;;;;5004003;28;20137;-65
2023/09/10 11:18:36;;;;;;;9.63;7.82;;;25.10;83.10;;;;;;4991622;28;20053;-65
2023/09/10 11:21:07;;;;;;;10.35;8.20;;;25.10;79.80;;;;;;4986084;28;20054;-65
2023/09/10 11:23:57;;;;;;;9.98;7.70;;;25.00;72.60;;;;;;4975462;28;20052;-65
2023/09/10 11:26:22;;;;;;;10.60;8.75;;;25.00;86.50;;;;;;4991584;28;20445;-65
2023/09/10 11:28:50;;;;;;;9.50;7.95;;;24.90;77.70;;;;;;5006937;28;20046;-65
2023/09/10 11:34:17;;;;;;;11.48;8.30;;;24.90;82.90;;;;;;4998892;28;20087;-65
2023/09/10 11:37:22;;;;;;;9.57;7.68;;;25.00;78.10;;;;;;5007807;28;20466;-65
2023/09/10 11:39:49;;;;;;;7.13;6.43;;;25.00;93.20;;;;;;5006409;28;20117;-65
2023/09/10 11:42:15;;;;;;;7.50;6.72;;;25.10;89.10;;;;;;5006052;28;20046;-65
2023/09/10 11:48:12;;;;;;;10.73;8.07;;;25.30;91.20;;;;;;5100283;23;20104;-63
2023/09/10 11:50:38;;;;;;;14.13;7.57;;;25.40;80.10;;;;;;5016761;28;20420;-65
2023/09/10 11:53:04;;;;;;;9.25;7.20;;;25.40;75.50;;;;;;5016217;28;20042;-65
2023/09/10 11:55:31;;;;;;;7.40;6.50;;;25.50;90.10;;;;;;4992044;28;20400;-65
2023/09/10 11:57:56;;;;;;;9.48;7.20;;;25.50;81.90;;;;;;5014202;28;20511;-65
2023/09/10 12:00:23;;;;;;;8.18;6.70;;;25.60;81.40;;;;;;5010844;28;20041;-65
2023/09/10 12:02:49;;;;;;;14.05;6.93;;;25.60;79.50;;;;;;5004824;28;20408;-65
2023/09/10 12:05:15;;;;;;;9.25;7.28;;;25.70;83.30;;;;;;5009980;28;20038;-64
2023/09/10 12:07:43;;;;;;;7.15;6.45;;;25.70;75.10;;;;;;5019586;28;20053;-65
2023/09/10 12:10:09;;;;;;;8.93;6.32;;;25.80;72.00;;;;;;5015150;28;20192;-65
2023/09/10 12:12:37;;;;;;;8.45;6.65;;;25.90;71.60;;;;;;4990490;28;20107;-65
2023/09/10 12:15:04;;;;;;;7.38;6.68;;;25.90;70.60;;;;;;4987594;28;20042;-65
2023/09/10 12:17:30;;;;;;;7.88;6.53;;;26.00;77.50;;;;;;4987967;28;20046;-65
2023/09/10 12:19:57;;;;;;;8.88;6.47;;;26.00;67.80;;;;;;4989083;28;20053;-65
2023/09/10 12:22:22;;;;;;;10.63;7.57;;;26.10;65.30;;;;;;5008979;28;20404;-65
2023/09/10 12:24:48;;;;;;;8.68;6.20;;;26.00;51.50;;;;;;4989002;28;20042;-65
2023/09/10 12:27:14;;;;;;;7.53;6.82;;;26.10;61.80;;;;;;4990468;28;20034;-64
2023/09/10 12:29:40;;;;;;;10.05;6.50;;;26.10;61.40;;;;;;5007110;28;20037;-64
2023/09/10 12:32:06;;;;;;;8.95;6.47;;;26.20;70.10;;;;;;5011567;28;20041;-65
2023/09/10 12:34:33;;;;;;;10.40;7.05;;;26.20;57.00;;;;;;4987594;28;20408;-65
2023/09/10 12:36:59;;;;;;;11.95;7.10;;;26.30;62.20;;;;;;5005935;28;20151;-65
2023/09/10 12:39:28;;;;;;;14.57;7.80;;;26.20;33.50;;;;;;4998211;28;20104;-65
2023/09/10 12:42:01;;;;;;;7.55;6.05;;;26.10;48.50;;;;;;5003534;28;20042;-65